createdAt,value
2018-12-01T00:00:46.056Z,16.57
2018-12-01T00:03:15.782Z,16.97
2018-12-01T00:05:45.440Z,17.27
2018-12-01T00:08:14.976Z,17.57
2018-12-01T00:10:44.740Z,17.00
2018-12-01T00:13:14.263Z,18.20
2018-12-01T00:15:44.074Z,16.20
2018-12-01T00:18:13.821Z,17.47
2018-12-01T00:20:43.694Z,16.70
2018-12-01T00:23:13.220Z,17.00
2018-12-01T00:25:42.720Z,17.67
2018-12-01T00:28:12.605Z,17.00
2018-12-01T00:30:42.355Z,17.00
2018-12-01T00:33:12.065Z,18.33
2018-12-01T00:35:41.803Z,15.90
2018-12-01T00:38:11.538Z,18.00
2018-12-01T00:40:41.004Z,17.37
2018-12-01T00:43:10.698Z,16.97
2018-12-01T00:45:40.437Z,17.60
2018-12-01T00:48:10.102Z,17.67
2018-12-01T00:50:39.674Z,17.23
2018-12-01T00:53:09.686Z,16.23
2018-12-01T00:55:39.343Z,18.00
2018-12-01T00:58:08.976Z,16.00
2018-12-01T01:00:38.707Z,18.33
2018-12-01T01:03:08.521Z,17.47
2018-12-01T01:05:38.324Z,18.20
2018-12-01T01:08:08.020Z,18.17
2018-12-01T01:10:37.795Z,17.57
2018-12-01T01:13:07.154Z,16.90
2018-12-01T01:15:36.568Z,17.40
2018-12-01T01:18:06.542Z,16.60
2018-12-01T01:20:36.152Z,15.87
2018-12-01T01:23:06.161Z,16.30
2018-12-01T01:25:35.905Z,17.50
2018-12-01T01:28:06.108Z,16.80
2018-12-01T01:30:35.870Z,18.17
2018-12-01T01:33:16.605Z,16.70
2018-12-01T01:35:46.396Z,16.67
2018-12-01T01:38:15.928Z,17.50
2018-12-01T01:40:45.670Z,17.13
2018-12-01T01:43:15.183Z,16.73
2018-12-01T01:45:44.858Z,16.57
2018-12-01T01:48:14.296Z,17.37
2018-12-01T01:50:43.940Z,16.17
2018-12-01T01:53:13.722Z,16.70
2018-12-01T01:55:43.368Z,17.23
2018-12-01T01:58:12.759Z,16.40
2018-12-01T02:00:42.606Z,16.97
2018-12-01T02:03:12.363Z,16.47
2018-12-01T02:05:41.948Z,15.70
2018-12-01T02:08:11.604Z,17.10
2018-12-01T02:10:41.162Z,17.63
2018-12-01T02:13:10.904Z,15.93
2018-12-01T02:15:40.452Z,16.03
2018-12-01T02:18:10.141Z,15.17
2018-12-01T02:20:39.743Z,15.63
2018-12-01T02:23:09.354Z,16.30
2018-12-01T02:25:39.131Z,15.30
2018-12-01T02:28:08.762Z,17.17
2018-12-01T02:30:38.568Z,17.17
2018-12-01T02:33:08.210Z,17.43
2018-12-01T02:35:37.890Z,16.10
2018-12-01T02:38:07.444Z,17.10
2018-12-01T02:40:37.204Z,15.53
2018-12-01T02:43:06.920Z,17.07
2018-12-01T02:45:47.533Z,16.27
2018-12-01T02:48:17.176Z,17.37
2018-12-01T02:50:46.828Z,16.67
2018-12-01T02:53:16.546Z,15.90
2018-12-01T02:55:46.475Z,16.43
2018-12-01T02:58:16.274Z,18.17
2018-12-01T03:00:45.975Z,16.57
2018-12-01T03:03:15.564Z,16.30
2018-12-01T03:05:45.338Z,15.57
2018-12-01T03:08:14.996Z,15.83
2018-12-01T03:10:44.647Z,16.07
2018-12-01T03:13:14.369Z,16.80
2018-12-01T03:15:44.031Z,15.90
2018-12-01T03:18:13.793Z,16.50
2018-12-01T03:20:43.342Z,16.97
2018-12-01T03:23:12.965Z,16.03
2018-12-01T03:25:42.608Z,17.20
2018-12-01T03:28:12.389Z,16.10
2018-12-01T03:30:42.007Z,16.67
2018-12-01T03:33:11.571Z,15.70
2018-12-01T03:35:41.056Z,17.80
2018-12-01T03:38:10.770Z,14.70
2018-12-01T03:40:45.604Z,16.93
2018-12-01T03:43:15.246Z,16.13
2018-12-01T03:45:44.836Z,15.80
2018-12-01T03:48:14.515Z,14.80
2018-12-01T03:50:44.243Z,14.53
2018-12-01T03:53:13.909Z,14.93
2018-12-01T03:55:43.615Z,15.70
2018-12-01T03:58:13.219Z,15.60
2018-12-01T04:00:42.981Z,14.43
2018-12-01T04:03:12.650Z,13.70
2018-12-01T04:05:42.443Z,16.63
2018-12-01T04:08:11.928Z,14.37
2018-12-01T04:10:41.622Z,14.77
2018-12-01T04:13:11.369Z,14.40
2018-12-01T04:15:40.916Z,14.17
2018-12-01T04:18:10.503Z,14.63
2018-12-01T04:20:40.146Z,14.23
2018-12-01T04:23:09.803Z,13.80
2018-12-01T04:25:39.352Z,14.30
2018-12-01T04:28:08.936Z,13.90
2018-12-01T04:30:38.423Z,14.50
2018-12-01T04:33:08.000Z,14.77
2018-12-01T04:35:37.706Z,14.10
2018-12-01T04:38:07.766Z,15.13
2018-12-01T04:40:37.475Z,15.40
2018-12-01T04:43:07.323Z,14.03
2018-12-01T04:45:36.869Z,14.50
2018-12-01T04:48:06.901Z,14.10
2018-12-01T04:50:36.509Z,14.00
2018-12-01T04:53:07.088Z,13.40
2018-12-01T04:55:36.820Z,13.50
2018-12-01T04:58:06.996Z,14.90
2018-12-01T05:00:36.676Z,13.27
2018-12-01T05:03:06.334Z,14.47
2018-12-01T05:05:35.824Z,15.27
2018-12-01T05:08:05.786Z,15.17
2018-12-01T05:10:35.416Z,15.30
2018-12-01T05:13:05.197Z,14.43
2018-12-01T05:15:34.932Z,13.50
2018-12-01T05:18:04.806Z,15.27
2018-12-01T05:20:34.542Z,13.93
2018-12-01T05:23:04.302Z,14.40
2018-12-01T05:25:33.892Z,14.17
2018-12-01T05:28:03.632Z,15.10
2018-12-01T05:30:33.052Z,14.13
2018-12-01T05:33:02.729Z,15.60
2018-12-01T05:35:32.377Z,14.80
2018-12-01T05:38:02.059Z,16.47
2018-12-01T05:40:31.622Z,16.00
2018-12-01T05:43:01.113Z,14.50
2018-12-01T05:45:30.812Z,16.30
2018-12-01T05:48:00.440Z,14.90
2018-12-01T05:50:30.090Z,14.80
2018-12-01T05:52:59.885Z,14.90
2018-12-01T05:55:29.415Z,15.53
2018-12-01T05:57:58.963Z,15.00
2018-12-01T06:00:28.806Z,13.97
2018-12-01T06:02:58.471Z,15.10
2018-12-01T06:05:28.111Z,15.20
2018-12-01T06:07:57.712Z,15.13
2018-12-01T06:10:27.419Z,16.80
2018-12-01T06:13:01.146Z,15.60
2018-12-01T06:15:31.161Z,15.73
2018-12-01T06:18:02.542Z,16.10
2018-12-01T06:20:32.245Z,17.30
2018-12-01T06:23:01.987Z,17.57
2018-12-01T06:25:31.548Z,18.10
2018-12-01T06:28:01.212Z,16.53
2018-12-01T06:30:30.811Z,17.07
2018-12-01T06:33:00.386Z,16.43
2018-12-01T06:35:30.096Z,17.60
2018-12-01T06:37:59.818Z,17.63
2018-12-01T06:40:29.704Z,16.10
2018-12-01T06:42:59.418Z,17.00
2018-12-01T06:45:29.104Z,16.50
2018-12-01T06:47:58.834Z,16.93
2018-12-01T06:50:28.293Z,17.63
2018-12-01T06:52:57.739Z,15.10
2018-12-01T06:55:27.481Z,15.83
2018-12-01T06:57:57.036Z,15.53
2018-12-01T07:00:26.928Z,16.60
2018-12-01T07:02:57.039Z,16.50
2018-12-01T07:05:26.540Z,16.50
2018-12-01T07:07:56.257Z,17.03
2018-12-01T07:10:25.977Z,17.97
2018-12-01T07:13:00.993Z,16.33
2018-12-01T07:15:33.366Z,15.57
2018-12-01T07:19:09.899Z,16.60
2018-12-01T07:21:39.526Z,16.50
2018-12-01T07:24:09.174Z,15.73
2018-12-01T07:26:38.946Z,17.00
2018-12-01T07:29:08.870Z,16.83
2018-12-01T07:31:38.650Z,17.03
2018-12-01T07:34:08.408Z,16.43
2018-12-01T07:36:37.948Z,16.13
2018-12-01T07:39:08.828Z,16.67
2018-12-01T07:41:38.310Z,17.57
2018-12-01T07:44:07.822Z,17.03
2018-12-01T07:46:37.547Z,15.73
2018-12-01T07:49:07.302Z,17.00
2018-12-01T07:51:36.914Z,17.57
2018-12-01T07:54:06.469Z,16.42
2018-12-01T07:56:35.788Z,16.33
2018-12-01T07:59:05.595Z,16.23
2018-12-01T08:01:35.485Z,15.70
2018-12-01T08:04:05.414Z,16.73
2018-12-01T08:06:35.192Z,17.20
2018-12-01T08:09:06.747Z,16.63
2018-12-01T08:11:36.591Z,16.20
2018-12-01T08:14:06.581Z,15.87
2018-12-01T08:16:36.192Z,17.10
2018-12-01T08:19:06.000Z,16.90
2018-12-01T08:21:35.743Z,16.47
2018-12-01T08:24:05.387Z,17.23
2018-12-01T08:26:35.142Z,15.90
2018-12-01T08:29:05.500Z,17.73
2018-12-01T08:31:35.184Z,16.40
2018-12-01T08:34:05.158Z,16.40
2018-12-01T08:36:34.821Z,16.40
2018-12-01T08:39:05.554Z,15.90
2018-12-01T08:41:35.068Z,16.27
2018-12-01T08:44:04.697Z,16.73
2018-12-01T08:46:34.253Z,16.57
2018-12-01T08:49:03.934Z,16.57
2018-12-01T08:51:33.572Z,17.10
2018-12-01T08:54:03.248Z,16.17
2018-12-01T08:56:32.913Z,17.23
2018-12-01T08:59:02.519Z,16.70
2018-12-01T09:01:32.302Z,17.47
2018-12-01T09:04:02.079Z,18.17
2018-12-01T09:06:31.600Z,17.43
2018-12-01T09:09:02.159Z,18.53
2018-12-01T09:11:31.930Z,16.37
2018-12-01T09:14:02.379Z,17.00
2018-12-01T09:16:32.377Z,18.00
2018-12-01T09:19:02.449Z,16.50
2018-12-01T09:21:32.978Z,16.07
2018-12-01T09:24:03.585Z,15.80
2018-12-01T09:26:33.401Z,16.60
2018-12-01T09:29:03.136Z,17.03
2018-12-01T09:31:33.348Z,15.63
2018-12-01T09:34:03.078Z,15.30
2018-12-01T09:36:32.829Z,16.17
2018-12-01T09:39:02.669Z,17.13
2018-12-01T09:41:32.188Z,16.17
2018-12-01T09:44:02.645Z,16.03
2018-12-01T09:46:34.645Z,16.70
2018-12-01T09:49:04.355Z,16.23
2018-12-01T09:51:34.500Z,18.47
2018-12-01T09:54:04.351Z,16.93
2018-12-01T09:57:37.091Z,18.20
2018-12-01T10:00:10.445Z,17.77
2018-12-01T10:02:40.008Z,18.30
2018-12-01T10:05:11.132Z,17.30
2018-12-01T10:07:40.918Z,16.33
2018-12-01T10:10:14.701Z,16.80
2018-12-01T10:12:44.919Z,16.03
2018-12-01T10:15:17.226Z,16.03
2018-12-01T10:17:47.226Z,15.53
2018-12-01T10:20:20.654Z,15.53
2018-12-01T10:22:50.644Z,16.90
2018-12-01T10:25:20.188Z,16.20
2018-12-01T10:27:50.049Z,16.27
2018-12-01T10:30:27.557Z,16.50
2018-12-01T10:32:57.904Z,15.33
2018-12-01T10:35:27.927Z,15.23
2018-12-01T10:38:05.555Z,15.47
2018-12-01T10:40:35.150Z,14.77
2018-12-01T10:43:04.785Z,14.20
2018-12-01T10:45:34.825Z,14.27
2018-12-01T10:48:04.719Z,13.63
2018-12-01T10:50:34.795Z,14.50
2018-12-01T10:53:04.562Z,13.30
2018-12-01T10:55:35.039Z,12.30
2018-12-01T10:58:07.218Z,12.07
2018-12-01T11:00:42.337Z,11.33
2018-12-01T11:03:17.099Z,10.60
2018-12-01T11:05:48.093Z,10.73
2018-12-01T11:08:18.018Z,11.13
2018-12-01T11:10:48.104Z,9.37
2018-12-01T11:13:18.000Z,9.80
2018-12-01T11:15:47.717Z,9.80
2018-12-01T11:18:17.680Z,8.90
2018-12-01T11:20:47.480Z,8.80
2018-12-01T11:23:16.968Z,8.03
2018-12-01T11:25:46.756Z,9.60
2018-12-01T11:28:16.338Z,11.63
2018-12-01T11:30:45.972Z,12.70
2018-12-01T11:33:15.827Z,11.53
2018-12-01T11:35:45.944Z,11.37
2018-12-01T11:38:15.744Z,10.30
2018-12-01T11:40:45.638Z,11.13
2018-12-01T11:43:15.012Z,9.80
2018-12-01T11:45:44.892Z,10.77
2018-12-01T11:48:14.623Z,12.90
2018-12-01T11:50:44.319Z,12.17
2018-12-01T11:53:14.356Z,11.70
2018-12-01T11:55:43.854Z,12.70
2018-12-01T11:58:13.567Z,12.00
2018-12-01T12:00:45.270Z,10.73
2018-12-01T12:03:14.972Z,9.90
2018-12-01T12:05:45.261Z,10.33
2018-12-01T12:08:18.782Z,11.30
2018-12-01T12:10:48.383Z,9.83
2018-12-01T12:13:18.460Z,9.60
2018-12-01T12:15:48.251Z,11.27
2018-12-01T12:18:18.052Z,11.43
2018-12-01T12:20:47.809Z,11.93
2018-12-01T12:23:17.433Z,12.20
2018-12-01T12:25:46.999Z,11.93
2018-12-01T12:28:16.728Z,11.50
2018-12-01T12:30:46.459Z,12.60
2018-12-01T12:33:16.125Z,11.83
2018-12-01T12:35:45.820Z,11.70
2018-12-01T12:38:15.567Z,13.17
2018-12-01T12:40:45.288Z,12.00
2018-12-01T12:43:15.314Z,9.37
2018-12-01T12:45:44.784Z,8.77
2018-12-01T12:48:14.486Z,8.40
2018-12-01T12:50:44.131Z,9.27
2018-12-01T12:53:13.758Z,9.40
2018-12-01T12:55:43.442Z,8.10
2018-12-01T12:58:13.105Z,7.90
2018-12-01T13:00:42.609Z,8.60
2018-12-01T13:03:12.623Z,8.30
2018-12-01T13:05:45.214Z,7.63
2018-12-01T13:08:17.945Z,7.73
2018-12-01T13:10:47.581Z,7.93
2018-12-01T13:13:17.174Z,8.07
2018-12-01T13:15:46.914Z,8.03
2018-12-01T13:18:16.543Z,7.40
2018-12-01T13:20:47.311Z,6.80
2018-12-01T13:23:17.021Z,6.37
2018-12-01T13:25:47.090Z,5.70
2018-12-01T13:28:19.085Z,6.17
2018-12-01T13:30:57.264Z,5.30
2018-12-01T13:33:27.827Z,5.47
2018-12-01T13:35:58.587Z,5.70
2018-12-01T13:38:29.247Z,5.97
2018-12-01T13:40:59.011Z,5.30
2018-12-01T13:43:28.875Z,5.60
2018-12-01T13:45:58.598Z,5.80
2018-12-01T13:48:28.470Z,5.10
2018-12-01T13:50:58.352Z,5.90
2018-12-01T13:53:28.130Z,5.80
2018-12-01T13:55:57.790Z,5.33
2018-12-01T13:58:27.550Z,5.60
2018-12-01T14:00:57.303Z,6.00
2018-12-01T14:03:27.075Z,5.43
2018-12-01T14:05:57.028Z,5.77
2018-12-01T14:08:26.592Z,6.40
2018-12-01T14:10:56.069Z,6.40
2018-12-01T14:13:25.510Z,6.23
2018-12-01T14:15:54.888Z,6.30
2018-12-01T14:18:24.512Z,6.47
2018-12-01T14:20:54.192Z,5.37
2018-12-01T14:23:23.775Z,6.20
2018-12-01T14:25:53.530Z,6.17
2018-12-01T14:28:23.640Z,6.40
2018-12-01T14:30:53.278Z,6.50
2018-12-01T14:33:23.071Z,6.70
2018-12-01T14:35:52.642Z,6.50
2018-12-01T14:38:22.317Z,6.23
2018-12-01T14:40:51.928Z,6.92
2018-12-01T14:43:21.618Z,7.10
2018-12-01T14:45:51.326Z,7.30
2018-12-01T14:48:20.988Z,6.73
2018-12-01T14:50:50.389Z,6.80
2018-12-01T14:53:20.186Z,6.17
2018-12-01T14:55:49.939Z,6.73
2018-12-01T14:58:19.427Z,6.30
2018-12-01T15:00:49.076Z,5.33
2018-12-01T15:03:18.718Z,5.27
2018-12-01T15:05:48.310Z,5.57
2018-12-01T15:08:17.856Z,5.70
2018-12-01T15:10:47.596Z,5.90
2018-12-01T15:13:17.181Z,7.20
2018-12-01T15:15:46.744Z,8.30
2018-12-01T15:18:16.544Z,8.97
2018-12-01T15:20:46.101Z,9.47
2018-12-01T15:23:16.058Z,8.43
2018-12-01T15:25:45.388Z,8.90
2018-12-01T15:28:15.006Z,7.50
2018-12-01T15:30:44.632Z,6.03
2018-12-01T15:33:16.278Z,6.23
2018-12-01T15:35:46.865Z,6.30
2018-12-01T15:38:16.724Z,6.40
2018-12-01T15:40:48.982Z,7.47
2018-12-01T15:43:18.729Z,7.17
2018-12-01T15:45:48.178Z,7.47
2018-12-01T15:48:17.922Z,7.70
2018-12-01T15:50:47.571Z,8.93
2018-12-01T15:53:17.256Z,11.77
2018-12-01T15:55:47.076Z,13.27
2018-12-01T15:58:16.671Z,17.10
2018-12-01T16:00:46.518Z,22.53
2018-12-01T16:03:15.912Z,19.70
2018-12-01T16:05:45.535Z,22.97
2018-12-01T16:08:15.196Z,23.70
2018-12-01T16:10:44.755Z,21.60
2018-12-01T16:13:17.178Z,18.00
2018-12-01T16:16:03.703Z,13.03
2018-12-01T16:18:33.509Z,8.40
2018-12-01T16:21:03.227Z,8.77
2018-12-01T16:23:32.937Z,9.07
2018-12-01T16:26:02.661Z,11.30
2018-12-01T16:28:32.310Z,11.93
2018-12-01T16:31:02.010Z,13.63
2018-12-01T16:33:31.574Z,12.33
2018-12-01T16:36:01.492Z,12.30
2018-12-01T16:38:32.549Z,13.90
2018-12-01T16:41:15.187Z,14.97
2018-12-01T16:43:44.608Z,12.20
2018-12-01T16:46:14.216Z,11.20
2018-12-01T16:48:43.840Z,10.47
2018-12-01T16:51:13.537Z,11.07
2018-12-01T16:53:43.351Z,13.67
2018-12-01T16:56:12.946Z,13.27
2018-12-01T16:58:42.539Z,9.60
2018-12-01T17:01:12.272Z,8.17
2018-12-01T17:03:41.750Z,8.13
2018-12-01T17:06:15.375Z,8.07
2018-12-01T17:08:45.129Z,8.20
2018-12-01T17:11:15.010Z,9.53
2018-12-01T17:13:44.675Z,9.77
2018-12-01T17:16:14.496Z,9.40
2018-12-01T17:18:44.103Z,14.27
2018-12-01T17:21:13.732Z,22.80
2018-12-01T17:23:43.324Z,27.03
2018-12-01T17:26:12.814Z,24.70
2018-12-01T17:28:42.459Z,17.60
2018-12-01T17:31:12.163Z,14.80
2018-12-01T17:33:41.916Z,13.03
2018-12-01T17:36:11.683Z,11.40
2018-12-01T17:38:41.162Z,9.60
2018-12-01T17:41:12.416Z,9.37
2018-12-01T17:43:45.168Z,8.70
2018-12-01T17:46:14.872Z,9.30
2018-12-01T17:48:44.720Z,10.03
2018-12-01T17:51:14.433Z,11.27
2018-12-01T17:53:48.347Z,11.83
2018-12-01T17:56:18.145Z,13.33
2018-12-01T17:58:47.779Z,13.70
2018-12-01T18:01:17.440Z,12.30
2018-12-01T18:03:47.283Z,11.03
2018-12-01T18:06:16.998Z,12.10
2018-12-01T18:08:46.622Z,14.67
2018-12-01T18:11:16.624Z,14.80
2018-12-01T18:13:46.145Z,20.27
2018-12-01T18:16:15.665Z,19.50
2018-12-01T18:18:45.320Z,18.53
2018-12-01T18:21:15.193Z,16.33
2018-12-01T18:23:44.863Z,16.77
2018-12-01T18:26:14.669Z,16.50
2018-12-01T18:28:46.858Z,12.70
2018-12-01T18:31:20.271Z,11.83
2018-12-01T18:33:53.835Z,11.70
2018-12-01T18:36:23.498Z,10.37
2018-12-01T18:38:53.201Z,11.80
2018-12-01T18:41:22.756Z,12.55
2018-12-01T18:43:52.561Z,11.40
2018-12-01T18:46:22.284Z,9.47
2018-12-01T18:48:52.040Z,10.80
2018-12-01T18:51:22.845Z,9.20
2018-12-01T18:53:52.623Z,8.90
2018-12-01T18:56:22.520Z,8.83
2018-12-01T18:58:52.247Z,8.83
2018-12-01T19:01:21.747Z,9.20
2018-12-01T19:03:51.337Z,8.00
2018-12-01T19:06:21.281Z,8.90
2018-12-01T19:08:50.683Z,8.07
2018-12-01T19:11:20.121Z,8.70
2018-12-01T19:13:49.540Z,9.43
2018-12-01T19:16:18.969Z,9.93
2018-12-01T19:18:48.459Z,11.57
2018-12-01T19:21:17.931Z,12.50
2018-12-01T19:23:47.540Z,12.90
2018-12-01T19:26:17.268Z,11.33
2018-12-01T19:28:47.337Z,10.23
2018-12-01T19:31:16.948Z,10.13
2018-12-01T19:33:46.510Z,9.47
2018-12-01T19:36:16.098Z,8.20
2018-12-01T19:38:45.958Z,8.93
2018-12-01T19:41:15.810Z,8.00
2018-12-01T19:43:45.326Z,8.90
2018-12-01T19:46:14.898Z,9.40
2018-12-01T19:48:44.685Z,8.57
2018-12-01T19:51:15.219Z,9.85
2018-12-01T19:53:44.950Z,9.70
2018-12-01T19:56:14.617Z,9.60
2018-12-01T19:58:44.304Z,9.93
2018-12-01T20:01:13.667Z,10.33
2018-12-01T20:03:43.387Z,11.33
2018-12-01T20:06:13.066Z,13.23
2018-12-01T20:08:42.830Z,16.23
2018-12-01T20:11:12.392Z,13.90
2018-12-01T20:13:44.167Z,11.63
2018-12-01T20:16:25.978Z,10.50
2018-12-01T20:18:55.763Z,9.50
2018-12-01T20:21:25.446Z,9.67
2018-12-01T20:23:55.211Z,9.70
2018-12-01T20:26:25.041Z,9.97
2018-12-01T20:28:54.701Z,9.17
2018-12-01T20:31:24.530Z,8.10
2018-12-01T20:33:55.592Z,9.20
2018-12-01T20:36:27.389Z,8.50
2018-12-01T20:39:13.256Z,8.80
2018-12-01T20:41:42.944Z,8.77
2018-12-01T20:44:13.046Z,8.27
2018-12-01T20:46:42.811Z,8.03
2018-12-01T20:49:13.260Z,7.33
2018-12-01T20:51:43.127Z,8.00
2018-12-01T20:54:20.457Z,7.33
2018-12-01T20:56:50.207Z,8.70
2018-12-01T20:59:19.961Z,7.57
2018-12-01T21:01:49.703Z,7.30
2018-12-01T21:04:19.438Z,9.27
2018-12-01T21:06:49.124Z,11.57
2018-12-01T21:09:18.903Z,12.40
2018-12-01T21:11:48.644Z,11.50
2018-12-01T21:14:18.270Z,11.00
2018-12-01T21:16:47.986Z,12.77
2018-12-01T21:19:17.599Z,13.03
2018-12-01T21:21:47.412Z,13.47
2018-12-01T21:24:17.073Z,12.53
2018-12-01T21:26:46.859Z,10.83
2018-12-01T21:29:16.448Z,9.23
2018-12-01T21:31:46.260Z,8.87
2018-12-01T21:34:15.856Z,7.70
2018-12-01T21:36:45.574Z,8.00
2018-12-01T21:39:15.175Z,8.40
2018-12-01T21:41:44.784Z,8.47
2018-12-01T21:44:14.456Z,7.77
2018-12-01T21:46:43.901Z,8.73
2018-12-01T21:49:13.496Z,7.60
2018-12-01T21:51:43.204Z,7.13
2018-12-01T21:54:12.883Z,7.77
2018-12-01T21:56:44.043Z,8.23
2018-12-01T21:59:20.100Z,8.20
2018-12-01T22:01:50.150Z,7.93
2018-12-01T22:04:20.098Z,7.80
2018-12-01T22:06:49.576Z,8.23
2018-12-01T22:09:19.258Z,8.07
2018-12-01T22:11:48.924Z,7.63
2018-12-01T22:14:18.416Z,7.83
2018-12-01T22:16:47.963Z,7.70
2018-12-01T22:19:17.530Z,8.60
2018-12-01T22:21:47.228Z,9.50
2018-12-01T22:24:16.947Z,9.17
2018-12-01T22:26:46.370Z,8.07
2018-12-01T22:29:15.884Z,8.80
2018-12-01T22:31:45.314Z,8.80
2018-12-01T22:34:15.503Z,7.80
2018-12-01T22:36:46.824Z,8.13
2018-12-01T22:39:16.340Z,7.47
2018-12-01T22:41:46.038Z,8.40
2018-12-01T22:44:15.759Z,6.87
2018-12-01T22:46:45.400Z,7.37
2018-12-01T22:49:15.711Z,7.43
2018-12-01T22:51:44.793Z,6.77
2018-12-01T22:54:14.570Z,7.10
2018-12-01T22:56:44.256Z,7.20
2018-12-01T22:59:13.746Z,5.87
2018-12-01T23:01:43.286Z,6.23
2018-12-01T23:04:12.952Z,5.40
2018-12-01T23:06:42.708Z,5.83
2018-12-01T23:09:12.360Z,5.67
2018-12-01T23:11:41.990Z,5.80
2018-12-01T23:14:11.802Z,5.90
2018-12-01T23:16:41.225Z,6.10
2018-12-01T23:19:10.641Z,6.37
2018-12-01T23:21:40.348Z,5.87
2018-12-01T23:24:09.912Z,5.90
2018-12-01T23:26:39.342Z,5.80
2018-12-01T23:29:09.111Z,5.77
2018-12-01T23:31:39.784Z,5.20
2018-12-01T23:34:09.416Z,5.47
2018-12-01T23:36:39.261Z,5.37
2018-12-01T23:39:08.678Z,5.60
2018-12-01T23:41:38.298Z,5.43
2018-12-01T23:44:10.002Z,5.07
2018-12-01T23:46:39.535Z,5.63
2018-12-01T23:49:09.125Z,5.17
2018-12-01T23:51:38.860Z,5.23
2018-12-01T23:54:08.543Z,5.03
2018-12-01T23:56:38.410Z,5.87
2018-12-01T23:59:07.907Z,5.57
